Terminal Aerodrome Forecast
Issued by NWS Duluth, MN

Home | Current Version | Previous Version | Text Only | Print | Product List | Glossary On
Versions: 1 2 3 4 5 6 7 8 9 10 11 12 13 14 15 16 17
000
FTUS43 KDLH 272300
TAFINL
TAF
KINL 272338Z 2800/2824 35010KT P6SM SCT040
     FM280200 33004KT P6SM SKC
     FM281500 34009KT P6SM VCSH SCT035 BKN050
     FM281800 34010KT P6SM VCSH BKN050=

USA.gov is the U.S. government's official web portal to all federal, state and local government web resources and services.